Hauptseite
METAR-TAF:

METAR-TAF

Flughäfen :

Flughafen Castres-Mazamet

Castres, Frankreich

Breite: 43-33-25N, Länge: 2-17-21E, Höhe: 239 m

Beobachtung

Neuester Wetterbericht von vor 22 Minuten, um 02:00 UTC
Wind 20 kt aus Ost/Südost
Temperatur 8°C
Luftfeuchtigkeit 81%
Luftdruck 1015 hPa
Sichtweite 10 km oder mehr
Leichtregen

METAR: LFCK 180200Z AUTO 11020KT 9999 -RA SCT040/// BKN050/// OVC130/// ///TCU 08/05 Q1015

Zeit: 03:22 (02:22 UTC)

Prognose

Neuester Wetterbericht von vor 9 Stunden und 22 Minuten, um 17:00 UTC
Gültige Prognose vom 17 um 18 UTC bis 18 um 03 UTC
Wind 22 kt aus Ost/Südost, Böen bis zu 32 kt
Sichtweite 10 km oder mehr
keine Wolken unter 1500 m und keine Kumulonimbus oder Gewitterwolken

TAF: LFCK 171700Z 1718/1803 12022G32KT CAVOK

Wetterbeobachtungen und Prognosen von mehr als 4000 Flughäfen (METAR und TAF Bericht).

Die verfügbaren Stationen werden durch gelbe und rote Markierungen auf der Karte dargestellt.

Führen Sie die Maus auf sie, um den Namen der Station zu sehen.

Darauf klicken, um die Beobachtung von Wetterbeobachtungen und Prognosen zu sehen.

Um die Karte zu ändern : klicken Sie auf den grünen Tasten mit einem schwarzen Kreuz Zum Vergrößern, auf den grünen Button mit einem Gedankenstrich zu verkleinern, oder auf die grünen Pfeile für benachbarte Karten.


METAR-TAF: